Time;durP1;ratioP1;P1;durP2;ratioP2;P2;SDS_P1;SDS_P2;PMS_P1;PMS_P2;Temp;Humidity;BMP_temperature;BMP_pressure;BME280_temperature;BME280_humidity;BME280_pressure;Samples;Min_cycle;Max_cycle;Signal;HPM_P1;HPM_P2
2023/10/20 00:00:06;;;;;;;1012.53;888.97;;;14.40;99.90;;;;;;5015707;28;20452;-75
2023/10/20 00:02:33;;;;;;;1006.53;893.37;;;14.40;99.90;;;;;;5015583;28;20451;-75
2023/10/20 00:05:01;;;;;;;1020.33;907.33;;;14.50;99.90;;;;;;5015980;28;20496;-75
2023/10/20 00:07:28;;;;;;;1020.60;903.17;;;14.40;99.90;;;;;;5015709;28;20457;-75
2023/10/20 00:09:55;;;;;;;1025.13;898.30;;;14.50;99.90;;;;;;5015563;28;20956;-76
2023/10/20 00:12:23;;;;;;;1023.57;901.63;;;14.50;99.90;;;;;;5015275;28;20532;-75
2023/10/20 00:14:50;;;;;;;1027.53;901.60;;;14.50;99.90;;;;;;5015506;28;20492;-75
2023/10/20 00:17:17;;;;;;;1032.83;905.43;;;14.50;99.90;;;;;;5005745;28;20500;-76
2023/10/20 00:19:44;;;;;;;1026.97;897.37;;;14.50;99.90;;;;;;4996334;28;20446;-77
2023/10/20 00:22:11;;;;;;;1032.83;891.80;;;14.50;99.90;;;;;;4996259;28;20532;-77
2023/10/20 00:24:38;;;;;;;1025.87;888.20;;;14.50;99.90;;;;;;4996040;28;20446;-77
2023/10/20 00:27:05;;;;;;;1020.17;890.87;;;14.50;99.90;;;;;;4996102;28;20512;-78
2023/10/20 00:29:34;;;;;;;1032.27;896.93;;;14.50;99.90;;;;;;5007044;28;20445;-78
2023/10/20 00:32:01;;;;;;;1033.47;887.80;;;14.60;99.90;;;;;;5015831;28;20499;-78
2023/10/20 00:34:28;;;;;;;1035.23;878.37;;;14.60;99.90;;;;;;5015580;28;20477;-78
2023/10/20 00:36:55;;;;;;;1036.50;881.53;;;14.60;99.90;;;;;;5015522;28;20452;-79
2023/10/20 00:39:23;;;;;;;1036.70;884.33;;;14.60;99.90;;;;;;5015927;28;20468;-78
2023/10/20 00:41:50;;;;;;;1040.70;897.07;;;14.60;99.90;;;;;;5015278;28;20548;-78
2023/10/20 00:44:16;;;;;;;1029.97;889.37;;;14.60;99.90;;;;;;5014882;28;20480;-77
2023/10/20 00:46:45;;;;;;;1033.70;876.47;;;14.60;99.90;;;;;;5015355;28;20545;-77
2023/10/20 00:49:13;;;;;;;1036.67;875.40;;;14.60;99.90;;;;;;5015129;28;20548;-77
2023/10/20 00:51:41;;;;;;;1039.00;882.00;;;14.60;99.90;;;;;;5013872;28;20453;-77
2023/10/20 00:54:13;;;;;;;1042.67;885.30;;;14.60;99.90;;;;;;5015202;28;20481;-77
2023/10/20 00:56:41;;;;;;;1039.57;884.53;;;14.60;99.90;;;;;;5015606;28;20465;-77
2023/10/20 00:59:08;;;;;;;1050.10;888.93;;;14.60;99.90;;;;;;5015134;28;20478;-77
2023/10/20 01:01:35;;;;;;;1047.03;885.10;;;14.50;99.90;;;;;;5014497;28;20987;-77
2023/10/20 01:04:04;;;;;;;1054.27;881.83;;;14.60;99.90;;;;;;5014601;28;20524;-77
2023/10/20 01:06:32;;;;;;;1056.00;889.90;;;14.60;99.90;;;;;;5014747;28;20544;-77
2023/10/20 01:08:59;;;;;;;1058.97;881.97;;;14.60;99.90;;;;;;5014832;28;20875;-77
2023/10/20 01:11:26;;;;;;;1059.13;883.20;;;14.60;99.90;;;;;;5014584;28;20456;-77
2023/10/20 01:13:53;;;;;;;1066.60;884.30;;;14.60;99.90;;;;;;5014073;28;20575;-77
2023/10/20 01:16:20;;;;;;;1062.43;885.77;;;14.50;99.90;;;;;;5014448;28;20491;-77
2023/10/20 01:18:46;;;;;;;1065.47;885.67;;;14.50;99.90;;;;;;5014717;28;20456;-77
2023/10/20 01:21:15;;;;;;;1059.57;879.83;;;14.50;99.90;;;;;;5014363;28;20817;-77
2023/10/20 01:23:42;;;;;;;1064.97;880.47;;;14.50;99.90;;;;;;5014102;28;20547;-77
2023/10/20 01:26:10;;;;;;;1067.27;884.87;;;14.50;99.90;;;;;;5014452;28;20459;-77
2023/10/20 01:28:37;;;;;;;1069.17;888.20;;;14.50;99.90;;;;;;5014556;28;20456;-77
2023/10/20 01:31:04;;;;;;;1075.50;889.50;;;14.50;99.90;;;;;;5014518;28;20549;-77
2023/10/20 01:33:31;;;;;;;1073.57;876.40;;;14.60;99.90;;;;;;5014033;28;20476;-77
2023/10/20 01:35:58;;;;;;;1079.70;881.00;;;14.60;99.90;;;;;;5014067;28;20503;-77
2023/10/20 01:38:25;;;;;;;1071.73;888.03;;;14.60;99.90;;;;;;5014359;28;20480;-77
2023/10/20 01:40:52;;;;;;;1080.37;898.23;;;14.60;99.90;;;;;;5014062;28;20460;-77
2023/10/20 01:43:20;;;;;;;1062.57;877.53;;;14.60;99.90;;;;;;5013782;28;20988;-77
2023/10/20 01:45:47;;;;;;;1069.67;884.77;;;14.50;99.90;;;;;;5013951;28;20556;-76
2023/10/20 01:48:14;;;;;;;1063.27;882.33;;;14.60;99.90;;;;;;5013700;28;20813;-76
2023/10/20 01:50:41;;;;;;;1069.13;878.97;;;14.60;99.90;;;;;;5013509;28;20488;-76
2023/10/20 01:53:08;;;;;;;1067.13;866.30;;;14.60;99.90;;;;;;5013419;28;20815;-76
2023/10/20 01:55:39;;;;;;;1063.87;881.97;;;14.60;99.90;;;;;;5013661;28;20503;-76
2023/10/20 01:58:06;;;;;;;1061.37;882.70;;;14.70;99.90;;;;;;5013658;28;20543;-76
2023/10/20 02:00:36;;;;;;;1059.77;888.13;;;14.70;99.90;;;;;;5013474;28;20999;-76
2023/10/20 02:03:03;;;;;;;1055.57;895.93;;;14.70;99.90;;;;;;5012718;28;20461;-76
2023/10/20 02:05:30;;;;;;;1049.57;889.57;;;14.70;99.90;;;;;;5013424;28;20541;-76
2023/10/20 02:07:57;;;;;;;1041.80;885.60;;;14.70;99.90;;;;;;5013047;28;20544;-77
2023/10/20 02:10:25;;;;;;;1037.17;875.60;;;14.80;99.90;;;;;;5013698;28;20457;-77
2023/10/20 02:12:52;;;;;;;1034.23;874.30;;;14.80;99.90;;;;;;5009676;28;20488;-77
2023/10/20 02:15:18;;;;;;;1034.07;886.30;;;14.80;99.90;;;;;;4993865;28;20513;-77
2023/10/20 02:17:47;;;;;;;1031.73;870.23;;;14.80;99.90;;;;;;5004025;28;20456;-77
2023/10/20 02:20:15;;;;;;;1030.97;876.47;;;14.80;99.90;;;;;;5013225;28;20448;-77
2023/10/20 02:22:43;;;;;;;1027.17;866.90;;;14.80;99.90;;;;;;5013250;28;20488;-77
2023/10/20 02:25:10;;;;;;;1023.43;870.13;;;14.80;99.90;;;;;;5013488;28;20813;-77
2023/10/20 02:27:39;;;;;;;1023.27;875.07;;;14.80;99.90;;;;;;5013143;28;20492;-77
2023/10/20 02:30:08;;;;;;;1020.03;870.47;;;14.80;99.90;;;;;;5013181;28;20448;-77
2023/10/20 02:32:35;;;;;;;1012.10;868.73;;;14.90;99.90;;;;;;5013024;28;20870;-77
2023/10/20 02:35:04;;;;;;;1006.80;859.07;;;14.90;99.90;;;;;;5013052;28;20577;-77
2023/10/20 02:37:30;;;;;;;1003.67;875.30;;;14.90;99.90;;;;;;5013313;28;20543;-77
2023/10/20 02:39:57;;;;;;;999.07;882.60;;;14.90;99.90;;;;;;5013196;28;20453;-77
2023/10/20 02:42:24;;;;;;;985.40;876.50;;;15.00;99.90;;;;;;5012789;28;20543;-77
2023/10/20 02:44:51;;;;;;;993.37;884.73;;;14.90;99.90;;;;;;5012782;28;20449;-76
2023/10/20 02:47:18;;;;;;;988.87;881.20;;;15.00;99.90;;;;;;5012672;28;20449;-77
2023/10/20 02:49:45;;;;;;;990.13;883.63;;;15.00;99.90;;;;;;5012572;28;20941;-76
2023/10/20 02:52:13;;;;;;;986.80;880.53;;;15.00;99.90;;;;;;5012133;28;20551;-76
2023/10/20 02:54:40;;;;;;;978.80;873.47;;;15.00;99.90;;;;;;5012692;28;20660;-76
2023/10/20 02:57:07;;;;;;;979.57;875.97;;;15.00;99.90;;;;;;5012587;28;20539;-77
2023/10/20 02:59:34;;;;;;;979.97;877.33;;;15.00;99.90;;;;;;5012138;28;20537;-77
2023/10/20 03:02:01;;;;;;;964.67;863.87;;;15.10;99.90;;;;;;5011088;28;20540;-76
2023/10/20 03:04:29;;;;;;;972.20;871.30;;;15.00;99.90;;;;;;5012227;28;20488;-76
2023/10/20 03:06:55;;;;;;;968.37;868.50;;;15.10;99.90;;;;;;5012161;28;20531;-76
2023/10/20 03:09:24;;;;;;;975.23;876.10;;;15.00;99.90;;;;;;4998830;28;20475;-76
2023/10/20 03:11:51;;;;;;;966.13;868.20;;;15.00;99.90;;;;;;5012351;28;20456;-76
2023/10/20 03:14:18;;;;;;;973.47;874.90;;;15.00;99.90;;;;;;5011443;28;20556;-76
2023/10/20 03:16:45;;;;;;;949.40;852.50;;;15.00;99.90;;;;;;5012454;28;20795;-76
2023/10/20 03:19:12;;;;;;;944.67;847.77;;;15.00;99.90;;;;;;5008234;28;20461;-76
2023/10/20 03:21:39;;;;;;;949.27;851.80;;;14.90;99.90;;;;;;5011387;28;20488;-76
2023/10/20 03:24:07;;;;;;;961.58;859.85;;;14.90;99.90;;;;;;5011368;28;20451;-76
2023/10/20 03:26:35;;;;;;;972.10;873.20;;;14.90;99.90;;;;;;5012409;28;20285;-76
2023/10/20 03:29:04;;;;;;;958.00;860.40;;;14.90;99.90;;;;;;5010538;28;20456;-76
2023/10/20 03:31:31;;;;;;;956.83;858.97;;;14.90;99.90;;;;;;5011416;28;20453;-76
2023/10/20 03:33:58;;;;;;;953.20;855.70;;;14.90;99.90;;;;;;5012423;28;20584;-76
2023/10/20 03:36:27;;;;;;;948.20;856.03;;;15.00;99.90;;;;;;5012307;28;20987;-76
2023/10/20 03:38:54;;;;;;;949.37;862.27;;;15.00;99.90;;;;;;4994956;28;20541;-76
2023/10/20 03:41:22;;;;;;;950.67;863.67;;;15.10;99.90;;;;;;5012154;28;20814;-76
2023/10/20 03:43:51;;;;;;;942.70;857.70;;;15.10;99.90;;;;;;5012305;28;20457;-76
2023/10/20 03:46:18;;;;;;;947.57;862.97;;;15.10;99.90;;;;;;5012219;28;20529;-76
2023/10/20 03:48:45;;;;;;;938.23;854.53;;;15.10;99.90;;;;;;5012197;28;20959;-76
2023/10/20 03:51:12;;;;;;;936.30;856.10;;;15.10;99.90;;;;;;5012153;28;20507;-76
2023/10/20 03:53:47;;;;;;;936.53;856.83;;;15.10;99.90;;;;;;5011597;28;20456;-76
2023/10/20 03:56:18;;;;;;;934.67;855.17;;;15.10;99.90;;;;;;5011739;28;20452;-76
2023/10/20 03:58:46;;;;;;;924.93;847.80;;;15.10;99.90;;;;;;5011793;28;20826;-75
2023/10/20 04:01:14;;;;;;;940.20;862.83;;;15.10;99.90;;;;;;5010216;28;20465;-75
2023/10/20 04:03:43;;;;;;;924.53;846.80;;;15.00;99.90;;;;;;5011408;28;20453;-75
2023/10/20 04:06:11;;;;;;;922.90;844.67;;;15.00;99.90;;;;;;5012007;28;20463;-75
2023/10/20 04:08:38;;;;;;;932.10;851.60;;;15.00;99.90;;;;;;5011662;28;20449;-75
2023/10/20 04:11:05;;;;;;;921.73;841.50;;;15.00;99.90;;;;;;5012052;28;20544;-75
2023/10/20 04:13:32;;;;;;;923.03;842.27;;;15.00;99.90;;;;;;5012073;28;20449;-76
2023/10/20 04:15:59;;;;;;;927.60;846.00;;;15.00;99.90;;;;;;5011959;28;20480;-76
2023/10/20 04:18:32;;;;;;;927.87;845.53;;;15.00;99.90;;;;;;5011749;28;20540;-76
2023/10/20 04:20:59;;;;;;;934.90;851.20;;;15.00;99.90;;;;;;5011971;28;20457;-76
2023/10/20 04:23:26;;;;;;;934.57;849.90;;;15.00;99.90;;;;;;5011688;28;20453;-77
2023/10/20 04:25:53;;;;;;;938.03;851.20;;;15.00;99.90;;;;;;5012012;28;21128;-77
2023/10/20 04:28:28;;;;;;;936.13;849.27;;;15.00;99.90;;;;;;5009011;28;20450;-78
2023/10/20 04:42:03;;;;;;;945.60;854.73;;;14.90;99.90;;;;;;5013852;28;21001;-79
2023/10/20 04:47:59;;;;;;;952.20;858.63;;;14.90;99.90;;;;;;5015207;28;20449;-79
2023/10/20 04:53:23;;;;;;;945.63;851.47;;;15.00;99.90;;;;;;5015444;28;20456;-79
2023/10/20 04:58:42;;;;;;;953.47;855.03;;;14.90;99.90;;;;;;4995274;28;20453;-79
2023/10/20 05:01:17;;;;;;;932.30;834.40;;;14.90;99.90;;;;;;4996058;28;20710;-79
2023/10/20 05:03:46;;;;;;;935.20;837.57;;;14.90;99.90;;;;;;4995745;28;21012;-78
2023/10/20 05:06:24;;;;;;;934.17;835.30;;;14.90;99.90;;;;;;5006856;28;20483;-78
2023/10/20 05:08:51;;;;;;;950.40;850.33;;;14.90;99.90;;;;;;5014708;28;20480;-79
2023/10/20 05:11:19;;;;;;;947.77;846.00;;;14.90;99.90;;;;;;5014595;28;20456;-78
2023/10/20 05:13:45;;;;;;;945.60;843.00;;;14.90;99.90;;;;;;5013891;28;20527;-79
2023/10/20 05:16:13;;;;;;;948.80;846.13;;;14.90;99.90;;;;;;5014085;28;20487;-79
2023/10/20 05:18:40;;;;;;;956.20;852.77;;;14.90;99.90;;;;;;5014664;28;20457;-79
2023/10/20 05:21:11;;;;;;;941.83;838.67;;;14.90;99.90;;;;;;5014522;28;20452;-79
2023/10/20 05:23:41;;;;;;;937.00;830.30;;;14.90;99.90;;;;;;5012827;28;20976;-79
2023/10/20 05:26:10;;;;;;;946.37;841.87;;;14.90;99.90;;;;;;5014023;28;20536;-79
2023/10/20 05:28:37;;;;;;;949.60;846.20;;;14.90;99.90;;;;;;4994836;28;20450;-79
2023/10/20 05:31:04;;;;;;;936.73;834.17;;;14.90;99.90;;;;;;5009203;28;20453;-82
2023/10/20 05:33:30;;;;;;;949.17;844.57;;;14.90;99.90;;;;;;5013858;28;21296;-83
2023/10/20 05:36:03;;;;;;;949.97;840.07;;;14.90;99.90;;;;;;5012245;28;20836;-79
2023/10/20 05:38:30;;;;;;;972.70;829.20;;;14.90;99.90;;;;;;5012980;28;20448;-80
2023/10/20 05:40:59;;;;;;;960.23;814.67;;;14.90;99.90;;;;;;5013599;28;20546;-80
2023/10/20 05:43:27;;;;;;;945.87;815.83;;;14.80;99.90;;;;;;5014376;28;20459;-81
2023/10/20 05:45:54;;;;;;;955.67;826.07;;;14.80;99.90;;;;;;5013568;28;20481;-82
2023/10/20 05:48:21;;;;;;;961.40;814.47;;;14.80;99.90;;;;;;5013858;28;20455;-81
2023/10/20 05:50:49;;;;;;;958.47;809.77;;;14.80;99.90;;;;;;5014355;28;20869;-82
2023/10/20 05:53:16;;;;;;;968.77;812.83;;;14.80;99.90;;;;;;5013114;28;20506;-81
2023/10/20 05:55:43;;;;;;;967.47;807.53;;;14.80;99.90;;;;;;5013010;28;20551;-82
2023/10/20 05:58:11;;;;;;;977.17;811.03;;;14.80;99.90;;;;;;5010025;28;20532;-82
2023/10/20 06:00:38;;;;;;;987.13;818.73;;;14.80;99.90;;;;;;5012791;28;20484;-82
2023/10/20 06:03:07;;;;;;;1000.63;815.03;;;14.80;99.90;;;;;;5013011;28;20449;-81
2023/10/20 06:05:34;;;;;;;1007.63;819.20;;;14.80;99.90;;;;;;5012482;28;20456;-82
2023/10/20 06:08:01;;;;;;;1012.17;809.30;;;14.80;99.90;;;;;;5013505;28;20540;-82
2023/10/20 06:10:29;;;;;;;1014.50;810.97;;;14.70;99.90;;;;;;5013289;28;20452;-82
2023/10/20 06:13:00;;;;;;;1036.78;815.72;;;14.70;99.90;;;;;;5013606;28;20509;-84
2023/10/20 06:15:28;;;;;;;1055.82;832.83;;;14.70;99.90;;;;;;5014336;28;20851;-75
2023/10/20 06:17:57;;;;;;;973.23;832.07;;;14.70;99.90;;;;;;5014795;28;20293;-75
2023/10/20 06:20:26;;;;;;;986.60;821.03;;;14.70;99.90;;;;;;5014760;28;20937;-74
2023/10/20 06:22:56;;;;;;;997.97;819.17;;;14.70;99.90;;;;;;5012890;28;20463;-74
2023/10/20 06:25:23;;;;;;;1011.07;842.20;;;14.70;99.90;;;;;;5012497;28;20879;-74
2023/10/20 06:27:50;;;;;;;1020.87;847.50;;;14.70;99.90;;;;;;5013276;28;20459;-75
2023/10/20 06:30:21;;;;;;;1042.73;869.67;;;14.70;99.90;;;;;;5013323;28;20937;-75
2023/10/20 06:33:12;;;;;;;1057.33;891.53;;;14.70;99.90;;;;;;5013551;28;20453;-75
2023/10/20 06:35:49;;;;;;;1070.73;919.60;;;14.70;99.90;;;;;;5012833;28;20480;-75
2023/10/20 06:38:18;;;;;;;1089.83;931.40;;;14.70;99.90;;;;;;5012243;28;20479;-75
2023/10/20 06:40:47;;;;;;;1115.07;957.77;;;14.70;99.90;;;;;;5012040;28;20453;-75
2023/10/20 06:43:16;;;;;;;1131.43;968.30;;;14.70;99.90;;;;;;5012689;28;20516;-75
2023/10/20 06:45:43;;;;;;;1140.97;991.17;;;14.70;99.90;;;;;;5012421;28;20459;-74
2023/10/20 06:48:14;;;;;;;1137.67;990.77;;;14.70;99.90;;;;;;5011569;28;20449;-75
2023/10/20 06:50:40;;;;;;;1132.80;999.70;;;14.60;99.90;;;;;;5011612;28;20544;-75
2023/10/20 06:53:07;;;;;;;1140.60;999.90;;;14.60;99.90;;;;;;5011304;28;20489;-74
2023/10/20 06:55:34;;;;;;;1147.23;999.90;;;14.60;99.90;;;;;;5012575;28;20773;-74
2023/10/20 06:58:02;;;;;;;1164.20;999.90;;;14.60;99.90;;;;;;5011428;28;20449;-74
2023/10/20 07:00:29;;;;;;;1164.20;999.90;;;14.70;99.90;;;;;;5012113;28;20544;-73
2023/10/20 07:02:56;;;;;;;1234.40;999.90;;;14.60;99.90;;;;;;5011865;28;20551;-73
2023/10/20 07:05:25;;;;;;;1247.07;999.90;;;14.60;99.90;;;;;;5011250;28;20444;-73
2023/10/20 07:07:52;;;;;;;1245.30;999.90;;;14.60;99.90;;;;;;5011994;28;20515;-73
2023/10/20 07:10:21;;;;;;;1243.13;999.90;;;14.60;99.90;;;;;;5011610;28;20454;-74
2023/10/20 07:12:48;;;;;;;1252.50;999.90;;;14.60;99.90;;;;;;5012658;28;20453;-73
2023/10/20 07:15:16;;;;;;;1275.33;999.90;;;14.60;99.90;;;;;;5010618;28;21018;-73
2023/10/20 07:17:43;;;;;;;1298.10;999.90;;;14.60;99.90;;;;;;5011728;28;20453;-73
2023/10/20 07:20:10;;;;;;;1272.67;999.90;;;14.60;99.90;;;;;;5010949;28;20451;-73
2023/10/20 07:22:39;;;;;;;1283.53;999.90;;;14.60;99.90;;;;;;5011370;28;20649;-73
2023/10/20 07:25:07;;;;;;;1367.90;999.90;;;14.60;99.90;;;;;;5010972;28;20499;-72
2023/10/20 07:27:34;;;;;;;1323.03;999.90;;;14.60;99.90;;;;;;5012152;28;20834;-73
2023/10/20 07:30:03;;;;;;;1308.87;999.90;;;14.60;99.90;;;;;;5011842;28;20547;-73
2023/10/20 07:32:30;;;;;;;1295.20;999.90;;;14.60;99.90;;;;;;5011274;28;20453;-73
2023/10/20 07:34:57;;;;;;;1304.43;999.90;;;14.60;99.90;;;;;;5011436;28;20552;-73
2023/10/20 07:37:24;;;;;;;1321.57;999.90;;;14.60;99.90;;;;;;5011866;28;20540;-74
2023/10/20 07:39:52;;;;;;;1309.13;999.90;;;14.60;99.90;;;;;;5011179;28;20453;-74
2023/10/20 07:42:19;;;;;;;1307.90;999.90;;;14.60;99.90;;;;;;5011814;28;20540;-74
2023/10/20 07:44:47;;;;;;;1286.90;999.90;;;14.60;99.90;;;;;;5011805;28;20453;-74
2023/10/20 07:47:14;;;;;;;1290.33;999.90;;;14.60;99.90;;;;;;5011753;28;20488;-74
2023/10/20 07:49:42;;;;;;;1299.20;999.90;;;14.60;99.90;;;;;;5011834;28;20458;-74
2023/10/20 07:52:09;;;;;;;1282.30;999.90;;;14.70;99.90;;;;;;5011939;28;20460;-74
2023/10/20 07:54:36;;;;;;;1272.13;999.90;;;14.60;99.90;;;;;;5011759;28;20460;-73
2023/10/20 07:57:04;;;;;;;1330.20;999.90;;;14.70;99.90;;;;;;4994724;28;20520;-72
2023/10/20 07:59:31;;;;;;;1325.47;999.90;;;14.70;99.90;;;;;;4992094;28;20540;-73
2023/10/20 08:01:58;;;;;;;1314.77;999.90;;;14.70;99.90;;;;;;4995058;28;20456;-73
2023/10/20 08:04:26;;;;;;;1278.87;999.90;;;14.70;99.90;;;;;;4995967;28;20453;-73
2023/10/20 08:06:54;;;;;;;1260.80;999.90;;;14.70;99.90;;;;;;4996379;28;20932;-74
2023/10/20 08:09:21;;;;;;;1259.00;999.90;;;14.70;99.90;;;;;;4996287;28;20457;-75
2023/10/20 08:11:48;;;;;;;1364.25;999.90;;;14.60;99.90;;;;;;4995932;28;20452;-75
2023/10/20 08:14:20;;;;;;;1347.82;999.90;;;14.60;99.90;;;;;;4996357;28;20492;-74
2023/10/20 08:16:47;;;;;;;1186.63;999.90;;;14.70;99.90;;;;;;4997463;28;20203;-74
2023/10/20 08:19:14;;;;;;;1209.73;999.90;;;14.70;99.90;;;;;;4997898;28;20512;-74
2023/10/20 08:21:42;;;;;;;1234.10;999.90;;;14.70;99.90;;;;;;4997253;28;20453;-74
2023/10/20 08:24:10;;;;;;;1226.97;999.90;;;14.70;99.90;;;;;;4996462;28;20528;-75
2023/10/20 08:26:37;;;;;;;1216.93;999.90;;;14.80;99.90;;;;;;4995834;28;20450;-75
2023/10/20 08:29:06;;;;;;;1240.23;999.90;;;14.80;99.90;;;;;;4995818;28;20454;-75
2023/10/20 08:31:34;;;;;;;1261.97;999.90;;;14.80;99.90;;;;;;4995830;28;20528;-75
2023/10/20 08:34:01;;;;;;;1273.17;999.90;;;14.80;99.90;;;;;;4995594;28;20449;-74
2023/10/20 08:36:28;;;;;;;1286.17;999.90;;;14.90;99.90;;;;;;4996006;28;20486;-74
2023/10/20 08:38:55;;;;;;;1262.47;999.90;;;14.80;99.90;;;;;;4995882;28;20454;-74
2023/10/20 08:41:23;;;;;;;1261.17;999.90;;;14.90;99.90;;;;;;4995920;28;20454;-74
2023/10/20 08:43:50;;;;;;;1256.00;999.90;;;14.80;99.90;;;;;;4995994;28;20461;-73
2023/10/20 08:46:18;;;;;;;1279.17;999.90;;;14.80;99.90;;;;;;4995607;28;20453;-74
2023/10/20 08:48:48;;;;;;;1288.27;999.90;;;14.80;99.90;;;;;;4995477;28;20454;-74
2023/10/20 08:51:16;;;;;;;1288.70;999.90;;;14.80;99.90;;;;;;4995989;28;20504;-74
2023/10/20 08:53:43;;;;;;;1266.63;999.90;;;14.70;99.90;;;;;;4995535;28;20465;-74
2023/10/20 08:56:12;;;;;;;1313.40;999.90;;;14.70;99.90;;;;;;4995447;28;20491;-73
2023/10/20 08:58:39;;;;;;;1326.77;999.90;;;14.70;99.90;;;;;;4995316;28;20457;-73
2023/10/20 09:01:06;;;;;;;1326.20;999.90;;;14.70;99.90;;;;;;4995559;28;20573;-73
2023/10/20 09:03:40;;;;;;;1340.63;999.90;;;14.70;99.90;;;;;;4995330;28;20533;-73
2023/10/20 09:06:12;;;;;;;1323.73;999.90;;;14.70;99.90;;;;;;4995350;28;20534;-73
2023/10/20 09:08:39;;;;;;;1310.80;999.90;;;14.70;99.90;;;;;;4995119;28;20460;-73
2023/10/20 09:11:10;;;;;;;1305.43;999.90;;;14.70;99.90;;;;;;4994742;28;20513;-74
2023/10/20 09:13:39;;;;;;;1269.30;999.90;;;14.60;99.90;;;;;;4993718;28;20493;-74
2023/10/20 09:16:09;;;;;;;1294.40;999.90;;;14.60;99.90;;;;;;4995134;28;20893;-74
2023/10/20 09:18:43;;;;;;;1293.83;999.90;;;14.60;99.90;;;;;;4995071;28;20896;-74
2023/10/20 09:21:13;;;;;;;1319.80;999.90;;;14.70;99.90;;;;;;4995053;28;20453;-75
2023/10/20 09:23:40;;;;;;;1280.73;999.90;;;14.70;99.90;;;;;;4994907;28;20460;-75
2023/10/20 09:26:07;;;;;;;1263.33;999.90;;;14.70;99.90;;;;;;4995157;28;20548;-75
2023/10/20 09:28:34;;;;;;;1305.37;999.90;;;14.80;99.90;;;;;;4994806;28;20604;-73
2023/10/20 09:31:01;;;;;;;1230.27;999.90;;;14.70;99.90;;;;;;4994897;28;20619;-74
2023/10/20 09:33:28;;;;;;;1264.63;999.90;;;14.70;99.90;;;;;;4994593;28;20457;-73
2023/10/20 09:35:56;;;;;;;1242.83;999.90;;;14.70;99.90;;;;;;4994542;28;20552;-74
2023/10/20 09:38:27;;;;;;;1282.57;999.90;;;14.70;99.90;;;;;;4994749;28;21041;-74
2023/10/20 09:41:03;;;;;;;1272.93;999.90;;;14.70;99.90;;;;;;4995017;28;20897;-74
2023/10/20 09:43:35;;;;;;;1263.20;999.90;;;14.70;99.90;;;;;;4994697;28;20477;-74
2023/10/20 09:46:27;;;;;;;1269.57;999.90;;;14.70;99.90;;;;;;4994649;28;20750;-75
2023/10/20 09:48:57;;;;;;;1264.67;999.90;;;14.70;99.90;;;;;;4994929;28;20544;-75
2023/10/20 09:51:25;;;;;;;1261.60;999.90;;;14.80;99.90;;;;;;4994571;28;20450;-75
2023/10/20 09:53:54;;;;;;;1265.27;999.90;;;14.80;99.90;;;;;;4994653;28;20507;-74
2023/10/20 09:56:22;;;;;;;1280.37;999.90;;;14.80;99.90;;;;;;4994347;28;20485;-74
2023/10/20 09:58:49;;;;;;;1264.23;999.90;;;14.80;99.90;;;;;;4994518;28;20459;-74
2023/10/20 10:01:16;;;;;;;1238.00;999.90;;;14.70;99.90;;;;;;4994566;28;20454;-74
2023/10/20 10:03:59;;;;;;;1203.47;999.90;;;14.70;99.90;;;;;;4994470;28;20461;-73
2023/10/20 10:06:27;;;;;;;1227.10;999.90;;;14.70;99.90;;;;;;4994456;28;20584;-74
2023/10/20 10:08:57;;;;;;;1199.63;999.90;;;14.80;99.90;;;;;;4994654;28;20512;-74
2023/10/20 10:11:28;;;;;;;1209.40;999.90;;;14.80;99.90;;;;;;4994097;28;20485;-75
2023/10/20 10:13:57;;;;;;;1229.13;999.90;;;14.80;99.90;;;;;;4994549;28;20870;-75
2023/10/20 10:16:25;;;;;;;1248.50;999.90;;;14.80;99.90;;;;;;4994089;28;20532;-75
2023/10/20 10:18:54;;;;;;;1244.07;999.90;;;14.90;99.90;;;;;;4993908;28;20965;-75
2023/10/20 10:21:25;;;;;;;1251.30;999.90;;;14.90;99.90;;;;;;4994348;28;20460;-75
2023/10/20 10:24:12;;;;;;;1215.67;999.90;;;14.90;99.90;;;;;;4993791;28;20460;-75
2023/10/20 10:26:52;;;;;;;1210.03;999.90;;;15.00;99.90;;;;;;4993989;28;20555;-76
2023/10/20 10:29:20;;;;;;;1195.53;999.90;;;15.10;99.90;;;;;;4993584;28;20453;-76
2023/10/20 10:31:48;;;;;;;1190.87;999.90;;;15.10;99.90;;;;;;4993600;28;20486;-75
2023/10/20 10:34:15;;;;;;;1216.27;999.90;;;15.00;99.90;;;;;;4993515;28;20830;-75
2023/10/20 10:36:46;;;;;;;1242.50;999.90;;;14.90;99.90;;;;;;4993662;28;20477;-75
2023/10/20 10:39:27;;;;;;;1224.10;999.90;;;15.00;99.90;;;;;;4993869;28;20460;-76
2023/10/20 10:41:54;;;;;;;1227.83;999.90;;;15.10;99.90;;;;;;4993660;28;20460;-76
2023/10/20 10:44:23;;;;;;;1215.20;999.90;;;15.20;99.90;;;;;;4993579;28;20690;-76
2023/10/20 10:46:51;;;;;;;1203.57;999.90;;;15.20;99.90;;;;;;4993627;28;20822;-76
2023/10/20 10:49:18;;;;;;;1122.37;999.90;;;15.30;99.90;;;;;;4993680;28;20454;-77
2023/10/20 10:51:48;;;;;;;1113.20;996.00;;;15.20;99.90;;;;;;4993271;28;20557;-78
2023/10/20 10:54:15;;;;;;;1084.23;967.63;;;15.20;99.90;;;;;;4993293;28;20819;-77
2023/10/20 10:56:44;;;;;;;1080.63;963.07;;;15.20;99.90;;;;;;4993235;28;21019;-77
2023/10/20 10:59:12;;;;;;;1076.27;958.30;;;15.10;99.90;;;;;;4993232;28;20454;-77
2023/10/20 11:01:40;;;;;;;1077.10;961.30;;;15.20;99.90;;;;;;4993544;28;20536;-78
2023/10/20 11:04:09;;;;;;;1089.37;972.30;;;15.20;99.90;;;;;;4993180;28;20532;-78
2023/10/20 11:06:37;;;;;;;1064.23;948.30;;;15.10;99.90;;;;;;4993100;28;20529;-78
2023/10/20 11:09:10;;;;;;;1081.80;966.67;;;15.10;99.90;;;;;;4992894;28;20827;-78
2023/10/20 11:11:45;;;;;;;1045.37;930.57;;;15.10;99.90;;;;;;4992488;28;20493;-78
2023/10/20 11:14:12;;;;;;;1047.93;932.73;;;15.10;99.90;;;;;;4992580;28;20458;-79
2023/10/20 11:16:39;;;;;;;1052.63;937.43;;;15.10;99.90;;;;;;4992613;28;20576;-79
2023/10/20 11:19:06;;;;;;;1049.07;933.87;;;15.10;99.90;;;;;;4993074;28;20565;-79
2023/10/20 11:21:47;;;;;;;1024.30;909.00;;;15.10;99.90;;;;;;4992970;28;20460;-78
2023/10/20 11:24:28;;;;;;;1015.27;902.87;;;15.10;99.90;;;;;;4993009;28;20454;-78
2023/10/20 11:27:00;;;;;;;1019.97;908.67;;;15.00;99.90;;;;;;4993148;28;20474;-78
2023/10/20 11:29:31;;;;;;;1009.73;898.47;;;15.00;99.90;;;;;;4992883;28;20454;-78
2023/10/20 11:31:59;;;;;;;1004.37;885.47;;;14.90;99.90;;;;;;4992619;28;20508;-78
2023/10/20 11:34:26;;;;;;;1015.37;889.57;;;14.90;99.90;;;;;;4992584;28;20457;-78
2023/10/20 11:36:53;;;;;;;995.93;885.27;;;14.90;99.90;;;;;;4991868;28;20504;-78
2023/10/20 11:39:24;;;;;;;1002.33;891.37;;;14.90;99.90;;;;;;4993068;28;20450;-78
2023/10/20 11:41:52;;;;;;;1000.50;881.17;;;14.90;99.90;;;;;;4992997;28;20493;-78
2023/10/20 11:44:22;;;;;;;997.97;881.63;;;14.90;99.90;;;;;;4992791;28;20488;-78
2023/10/20 11:46:49;;;;;;;978.90;871.30;;;14.90;99.90;;;;;;4992911;28;20879;-78
2023/10/20 11:49:15;;;;;;;955.43;844.53;;;14.90;99.90;;;;;;4992559;28;20456;-78
2023/10/20 11:51:43;;;;;;;952.87;848.87;;;14.90;99.90;;;;;;4992524;28;20883;-78
2023/10/20 11:54:10;;;;;;;949.70;843.87;;;14.90;99.90;;;;;;4992861;28;20457;-78
2023/10/20 11:56:37;;;;;;;945.07;842.13;;;14.90;99.90;;;;;;4992800;28;20486;-77
2023/10/20 11:59:05;;;;;;;938.40;835.23;;;14.90;99.90;;;;;;4992627;28;21041;-77
2023/10/20 12:01:33;;;;;;;934.00;831.13;;;14.90;99.90;;;;;;4992755;28;20454;-77
2023/10/20 12:04:00;;;;;;;944.17;826.10;;;14.90;99.90;;;;;;4992450;28;20507;-77
2023/10/20 12:06:27;;;;;;;938.90;828.10;;;14.90;99.90;;;;;;4992530;28;20454;-77
2023/10/20 12:08:55;;;;;;;933.43;833.27;;;14.90;99.90;;;;;;4992795;28;20505;-76
2023/10/20 12:11:22;;;;;;;926.97;825.87;;;14.90;99.90;;;;;;4992668;28;20477;-76
2023/10/20 12:13:49;;;;;;;927.27;826.03;;;14.90;99.90;;;;;;4992573;28;20828;-76
2023/10/20 12:16:18;;;;;;;909.03;805.53;;;14.90;99.90;;;;;;4992514;28;20453;-77
2023/10/20 12:18:47;;;;;;;917.63;809.63;;;14.90;99.90;;;;;;4992498;28;20493;-76
2023/10/20 12:21:14;;;;;;;908.87;798.97;;;14.90;99.90;;;;;;4992633;28;20454;-76
2023/10/20 12:23:41;;;;;;;921.90;819.90;;;14.90;99.90;;;;;;4992686;28;20460;-76
2023/10/20 12:26:08;;;;;;;915.87;813.10;;;15.00;99.90;;;;;;4992003;28;20537;-76